createdAt,value
2018-02-15T00:00:07.322Z,-1.40
2018-02-15T00:02:34.913Z,-1.40
2018-02-15T00:05:02.513Z,-1.40
2018-02-15T00:07:30.111Z,-1.30
2018-02-15T00:09:58.454Z,-1.20
2018-02-15T00:12:26.032Z,-1.20
2018-02-15T00:14:53.711Z,-1.20
2018-02-15T00:17:21.323Z,-1.20
2018-02-15T00:19:48.889Z,-1.20
2018-02-15T00:22:16.496Z,-1.10
2018-02-15T00:24:44.851Z,-1.00
2018-02-15T00:27:12.451Z,-1.10
2018-02-15T00:29:40.786Z,-1.10
2018-02-15T00:32:08.410Z,-1.10
2018-02-15T00:34:36.011Z,-1.10
2018-02-15T00:37:03.642Z,-1.10
2018-02-15T00:39:31.200Z,-1.10
2018-02-15T00:41:58.788Z,-1.10
2018-02-15T00:44:26.398Z,-1.10
2018-02-15T00:46:53.982Z,-1.00
2018-02-15T00:49:21.589Z,-0.90
2018-02-15T00:51:49.167Z,-0.90
2018-02-15T00:54:17.528Z,-0.90
2018-02-15T00:56:45.885Z,-1.00
2018-02-15T00:59:13.501Z,-1.00
2018-02-15T01:01:41.067Z,-0.90
2018-02-15T01:04:08.636Z,-0.90
2018-02-15T01:06:36.231Z,-0.90
2018-02-15T01:09:03.816Z,-0.90
2018-02-15T01:11:32.178Z,-0.90
2018-02-15T01:13:59.748Z,-0.90
2018-02-15T01:16:28.099Z,-0.80
2018-02-15T01:18:55.704Z,-0.90
2018-02-15T01:21:24.034Z,-0.80
2018-02-15T01:23:51.641Z,-0.80
2018-02-15T01:26:19.211Z,-0.80
2018-02-15T01:28:46.832Z,-0.80
2018-02-15T01:31:14.402Z,-0.80
2018-02-15T01:33:42.008Z,-0.80
2018-02-15T01:36:09.654Z,-0.80
2018-02-15T01:38:37.239Z,-0.90
2018-02-15T01:41:04.822Z,-0.90
2018-02-15T01:43:32.405Z,-0.90
2018-02-15T01:46:00.806Z,-0.90
2018-02-15T01:48:28.430Z,-0.90
2018-02-15T01:50:55.994Z,-0.80
2018-02-15T01:53:23.618Z,-0.80
2018-02-15T01:55:51.184Z,-0.80
2018-02-15T01:58:18.781Z,-0.80
2018-02-15T02:00:47.162Z,-0.60
2018-02-15T02:03:15.582Z,-0.60
2018-02-15T02:05:43.197Z,-0.70
2018-02-15T02:08:11.590Z,-0.60
2018-02-15T02:10:39.939Z,-0.50
2018-02-15T02:13:07.536Z,-0.50
2018-02-15T02:15:35.906Z,-0.40
2018-02-15T02:18:04.252Z,-0.40
2018-02-15T02:20:31.841Z,-0.40
2018-02-15T02:23:00.191Z,-0.20
2018-02-15T02:25:27.840Z,-0.20
2018-02-15T02:27:55.534Z,-0.20
2018-02-15T02:30:23.124Z,-0.10
2018-02-15T02:32:50.763Z,-0.10
2018-02-15T02:35:19.104Z,0.00
2018-02-15T02:37:46.754Z,0.00
2018-02-15T02:40:14.362Z,0.00
2018-02-15T02:42:42.709Z,0.00
2018-02-15T02:45:10.287Z,0.00
2018-02-15T02:47:37.863Z,0.00
2018-02-15T02:50:06.229Z,0.10
2018-02-15T02:52:33.798Z,0.10
2018-02-15T02:55:01.524Z,0.10
2018-02-15T02:57:29.895Z,0.10
2018-02-15T02:59:57.506Z,0.10
2018-02-15T03:02:25.838Z,0.10
2018-02-15T03:04:54.018Z,0.10
2018-02-15T03:07:22.349Z,0.20
2018-02-15T03:09:49.939Z,0.30
2018-02-15T03:12:17.535Z,0.30
2018-02-15T03:14:45.113Z,0.30
2018-02-15T03:17:13.502Z,0.30
2018-02-15T03:19:41.090Z,0.30
2018-02-15T03:22:08.691Z,0.40
2018-02-15T03:24:36.315Z,0.40
2018-02-15T03:27:03.906Z,0.50
2018-02-15T03:29:31.511Z,0.50
2018-02-15T03:31:59.083Z,0.50
2018-02-15T03:34:27.661Z,0.50
2018-02-15T03:36:55.244Z,0.60
2018-02-15T03:39:22.831Z,0.60
2018-02-15T03:41:50.415Z,0.60
2018-02-15T03:44:18.782Z,0.70
2018-02-15T03:46:47.139Z,0.70
2018-02-15T03:49:14.756Z,0.70
2018-02-15T03:51:42.328Z,0.70
2018-02-15T03:54:09.893Z,0.70
2018-02-15T03:56:37.476Z,0.70
2018-02-15T03:59:05.051Z,0.70
2018-02-15T04:01:32.622Z,0.70
2018-02-15T04:04:00.218Z,0.80
2018-02-15T04:06:27.813Z,0.80
2018-02-15T04:08:56.157Z,0.80
2018-02-15T04:11:23.765Z,0.80
2018-02-15T04:13:51.357Z,0.70
2018-02-15T04:16:19.706Z,0.80
2018-02-15T04:18:47.302Z,0.80
2018-02-15T04:21:14.883Z,0.70
2018-02-15T04:23:42.488Z,0.80
2018-02-15T04:26:10.055Z,0.90
2018-02-15T04:28:37.638Z,0.90
2018-02-15T04:31:05.979Z,1.00
2018-02-15T04:33:33.557Z,1.00
2018-02-15T04:36:01.155Z,0.90
2018-02-15T04:38:28.874Z,0.90
2018-02-15T04:40:56.470Z,0.90
2018-02-15T04:43:24.057Z,0.90
2018-02-15T04:45:51.637Z,0.90
2018-02-15T04:48:19.227Z,1.00
2018-02-15T04:50:47.562Z,1.00
2018-02-15T04:53:15.184Z,1.00
2018-02-15T04:55:43.528Z,0.90
2018-02-15T04:58:11.111Z,0.90
2018-02-15T05:00:39.522Z,1.00
2018-02-15T05:03:07.086Z,1.00
2018-02-15T05:05:34.690Z,1.00
2018-02-15T05:08:02.254Z,1.00
2018-02-15T05:10:29.874Z,1.00
2018-02-15T05:12:57.447Z,1.00
2018-02-15T05:15:25.026Z,1.00
2018-02-15T05:17:52.626Z,1.00
2018-02-15T05:20:20.198Z,1.10
2018-02-15T05:22:47.798Z,1.10
2018-02-15T05:25:15.378Z,1.10
2018-02-15T05:27:42.999Z,1.20
2018-02-15T05:30:10.561Z,1.20
2018-02-15T05:32:38.142Z,1.30
2018-02-15T05:35:05.732Z,1.30
2018-02-15T05:37:33.320Z,1.40
2018-02-15T05:40:00.899Z,1.30
2018-02-15T05:42:28.480Z,1.40
2018-02-15T05:44:56.069Z,1.40
2018-02-15T05:47:24.425Z,1.40
2018-02-15T05:49:52.060Z,1.40
2018-02-15T05:52:19.623Z,1.40
2018-02-15T05:54:47.226Z,1.40
2018-02-15T05:57:15.567Z,1.50
2018-02-15T05:59:43.157Z,1.50
2018-02-15T06:02:11.501Z,1.40
2018-02-15T06:04:39.123Z,1.50
2018-02-15T06:07:06.730Z,1.60
2018-02-15T06:09:34.367Z,1.60
2018-02-15T06:12:01.973Z,1.60
2018-02-15T06:14:29.623Z,1.70
2018-02-15T06:16:57.233Z,1.70
2018-02-15T06:19:24.852Z,1.70
2018-02-15T06:21:52.479Z,1.70
2018-02-15T06:24:20.870Z,1.70
2018-02-15T06:26:48.504Z,1.70
2018-02-15T06:29:16.192Z,1.80
2018-02-15T06:31:43.790Z,1.80
2018-02-15T06:34:12.163Z,1.80
2018-02-15T06:36:39.797Z,1.80
2018-02-15T06:39:07.597Z,1.80
2018-02-15T06:41:35.969Z,1.90
2018-02-15T06:44:03.595Z,1.90
2018-02-15T06:46:31.201Z,2.00
2018-02-15T06:48:59.628Z,2.00
2018-02-15T06:51:27.279Z,2.00
2018-02-15T06:53:54.919Z,2.00
2018-02-15T06:56:22.556Z,1.90
2018-02-15T06:58:50.173Z,2.00
2018-02-15T07:01:17.787Z,2.00
2018-02-15T07:03:46.171Z,2.00
2018-02-15T07:06:14.540Z,2.00
2018-02-15T07:08:42.171Z,2.00
2018-02-15T07:11:09.787Z,2.10
2018-02-15T07:13:37.394Z,2.10
2018-02-15T07:16:05.019Z,2.10
2018-02-15T07:18:32.616Z,2.20
2018-02-15T07:21:00.250Z,2.20
2018-02-15T07:23:27.860Z,2.30
2018-02-15T07:25:55.496Z,2.30
2018-02-15T07:28:23.113Z,2.40
2018-02-15T07:30:50.734Z,2.50
2018-02-15T07:33:18.340Z,2.60
2018-02-15T07:35:45.983Z,2.70
2018-02-15T07:38:14.347Z,2.80
2018-02-15T07:40:41.953Z,2.80
2018-02-15T07:43:09.588Z,2.90
2018-02-15T07:45:37.317Z,2.80
2018-02-15T07:48:05.736Z,3.00
2018-02-15T07:50:33.341Z,3.00
2018-02-15T07:53:00.965Z,3.00
2018-02-15T07:55:28.577Z,3.10
2018-02-15T07:57:56.244Z,3.20
2018-02-15T08:00:23.834Z,3.20
2018-02-15T08:02:52.200Z,3.30
2018-02-15T08:05:20.608Z,3.40
2018-02-15T08:07:48.224Z,3.40
2018-02-15T08:10:15.844Z,3.50
2018-02-15T08:12:44.481Z,3.60
2018-02-15T08:15:12.107Z,3.60
2018-02-15T08:17:39.749Z,3.50
2018-02-15T08:20:07.323Z,3.60
2018-02-15T08:22:34.943Z,3.60
2018-02-15T08:25:03.301Z,3.60
2018-02-15T08:27:30.924Z,3.50
2018-02-15T08:29:58.543Z,3.50
2018-02-15T08:32:26.147Z,3.50
2018-02-15T08:34:53.776Z,3.50
2018-02-15T08:37:21.413Z,3.50
2018-02-15T08:39:49.788Z,3.50
2018-02-15T08:42:18.207Z,3.50
2018-02-15T08:44:45.812Z,3.50
2018-02-15T08:47:13.429Z,3.60
2018-02-15T08:49:41.015Z,3.60
2018-02-15T08:52:08.624Z,3.80
2018-02-15T08:54:37.025Z,3.60
2018-02-15T08:57:04.639Z,3.50
2018-02-15T08:59:32.266Z,3.70
2018-02-15T09:01:59.854Z,3.90
2018-02-15T09:04:27.501Z,3.80
2018-02-15T09:06:55.121Z,3.90
2018-02-15T09:09:22.777Z,3.90
2018-02-15T09:11:51.145Z,3.90
2018-02-15T09:14:19.551Z,3.90
2018-02-15T09:16:47.166Z,3.90
2018-02-15T09:19:14.763Z,3.80
2018-02-15T09:21:42.397Z,3.80
2018-02-15T09:24:10.855Z,3.80
2018-02-15T09:26:39.274Z,3.80
2018-02-15T09:31:41.442Z,3.90
2018-02-15T09:34:09.860Z,4.00
2018-02-15T09:36:37.472Z,4.00
2018-02-15T09:39:05.108Z,4.00
2018-02-15T09:41:32.705Z,3.90
2018-02-15T09:44:01.123Z,4.00
2018-02-15T09:46:28.724Z,4.00
2018-02-15T09:48:56.327Z,4.10
2018-02-15T09:51:23.946Z,4.30
2018-02-15T09:53:51.553Z,4.40
2018-02-15T09:56:19.783Z,4.50
2018-02-15T09:58:47.407Z,4.50
2018-02-15T10:01:15.020Z,4.50
2018-02-15T10:03:42.642Z,4.70
2018-02-15T10:06:10.256Z,4.80
2018-02-15T10:08:37.904Z,4.90
2018-02-15T10:11:06.294Z,5.10
2018-02-15T10:13:34.705Z,5.20
2018-02-15T10:16:02.335Z,5.10
2018-02-15T10:18:30.717Z,5.50
2018-02-15T10:20:59.117Z,5.60
2018-02-15T10:23:26.884Z,5.60
2018-02-15T10:25:54.512Z,5.70
2018-02-15T10:28:22.880Z,5.80
2018-02-15T10:30:51.283Z,5.80
2018-02-15T10:33:18.897Z,5.80
2018-02-15T10:35:46.542Z,5.90
2018-02-15T10:38:14.197Z,5.90
2018-02-15T10:40:41.807Z,5.90
2018-02-15T10:43:10.211Z,6.10
2018-02-15T10:45:37.866Z,6.10
2018-02-15T10:48:06.282Z,6.10
2018-02-15T10:50:33.900Z,6.10
2018-02-15T10:53:02.342Z,6.30
2018-02-15T10:55:29.992Z,6.30
2018-02-15T10:57:57.616Z,6.30
2018-02-15T11:03:31.427Z,6.40
2018-02-15T11:06:00.621Z,6.40
2018-02-15T11:08:29.024Z,6.50
2018-02-15T11:10:56.649Z,6.50
2018-02-15T11:13:24.255Z,6.50
2018-02-15T11:15:51.887Z,6.50
2018-02-15T11:18:19.494Z,6.40
2018-02-15T11:20:47.132Z,6.40
2018-02-15T11:23:14.749Z,6.50
2018-02-15T11:25:42.385Z,6.50
2018-02-15T11:28:10.013Z,6.40
2018-02-15T11:30:37.647Z,6.50
2018-02-15T11:33:06.017Z,6.50
2018-02-15T11:35:34.416Z,6.40
2018-02-15T11:38:02.058Z,6.40
2018-02-15T11:40:29.697Z,6.40
2018-02-15T11:42:57.340Z,6.50
2018-02-15T11:45:24.960Z,6.60
2018-02-15T11:47:53.341Z,6.70
2018-02-15T11:50:21.747Z,6.90
2018-02-15T11:52:49.378Z,6.90
2018-02-15T11:55:17.761Z,7.10
2018-02-15T11:57:45.384Z,7.10
2018-02-15T12:00:13.048Z,7.10
2018-02-15T12:02:40.660Z,7.00
2018-02-15T12:05:08.265Z,7.10
2018-02-15T12:07:35.880Z,7.00
2018-02-15T12:10:03.524Z,7.00
2018-02-15T12:12:31.914Z,7.00
2018-02-15T12:14:59.607Z,7.00
2018-02-15T12:17:27.219Z,7.00
2018-02-15T12:19:55.586Z,6.80
2018-02-15T12:22:23.228Z,6.70
2018-02-15T12:24:50.819Z,6.80
2018-02-15T12:27:20.096Z,6.60
2018-02-15T12:29:47.757Z,6.60
2018-02-15T12:32:15.377Z,6.50
2018-02-15T12:34:42.997Z,6.40
2018-02-15T12:37:11.374Z,6.30
2018-02-15T12:39:38.995Z,6.20
2018-02-15T12:42:06.587Z,6.30
2018-02-15T12:44:34.214Z,6.30
2018-02-15T12:47:01.842Z,6.40
2018-02-15T12:49:29.453Z,6.40
2018-02-15T12:51:57.107Z,6.40
2018-02-15T12:54:24.766Z,6.40
2018-02-15T12:56:52.395Z,6.40
2018-02-15T12:59:20.019Z,6.40
2018-02-15T13:01:47.626Z,6.30
2018-02-15T13:04:20.862Z,6.30
2018-02-15T13:06:48.477Z,6.30
2018-02-15T13:09:16.096Z,6.30
2018-02-15T13:11:44.475Z,6.30
2018-02-15T13:14:12.852Z,6.20
2018-02-15T13:16:51.385Z,6.30
2018-02-15T13:19:31.578Z,6.30
2018-02-15T13:21:59.215Z,6.30
2018-02-15T13:24:27.220Z,6.20
2018-02-15T13:26:54.837Z,6.20
2018-02-15T13:29:22.466Z,6.20
2018-02-15T13:31:50.111Z,6.20
2018-02-15T13:34:17.726Z,6.10
2018-02-15T13:36:45.364Z,6.10
2018-02-15T13:39:13.755Z,6.00
2018-02-15T13:41:42.110Z,6.00
2018-02-15T13:44:09.745Z,6.00
2018-02-15T13:46:37.343Z,6.10
2018-02-15T13:49:05.776Z,6.20
2018-02-15T13:51:33.375Z,6.20
2018-02-15T13:54:00.974Z,6.30
2018-02-15T13:56:28.601Z,6.50
2018-02-15T13:58:56.975Z,6.40
2018-02-15T14:01:25.370Z,6.40
2018-02-15T14:03:53.779Z,6.40
2018-02-15T14:06:21.382Z,6.40
2018-02-15T14:08:49.017Z,6.40
2018-02-15T14:11:16.618Z,6.40
2018-02-15T14:13:44.251Z,6.40
2018-02-15T14:16:12.419Z,6.40
2018-02-15T14:18:40.066Z,6.50
2018-02-15T14:21:07.676Z,6.50
2018-02-15T14:23:35.348Z,6.50
2018-02-15T14:26:03.733Z,6.60
2018-02-15T14:28:32.167Z,6.70
2018-02-15T14:30:59.787Z,6.70
2018-02-15T14:33:27.412Z,6.80
2018-02-15T14:35:55.050Z,7.00
2018-02-15T14:38:22.649Z,7.10
2018-02-15T14:40:51.039Z,7.00
2018-02-15T14:43:19.407Z,7.10
2018-02-15T14:45:47.812Z,7.10
2018-02-15T14:48:15.424Z,7.10
2018-02-15T14:50:43.111Z,7.10
2018-02-15T14:53:10.765Z,7.10
2018-02-15T14:55:39.178Z,7.10
2018-02-15T14:58:06.786Z,7.10
2018-02-15T15:00:34.405Z,7.10
2018-02-15T15:03:02.022Z,7.10
2018-02-15T15:05:29.615Z,7.10
2018-02-15T15:07:57.232Z,7.10
2018-02-15T15:10:24.970Z,6.90
2018-02-15T15:12:52.579Z,6.90
2018-02-15T15:15:20.967Z,6.80
2018-02-15T15:17:49.335Z,6.80
2018-02-15T15:20:17.739Z,6.60
2018-02-15T15:22:45.446Z,6.60
2018-02-15T15:25:13.061Z,6.70
2018-02-15T15:27:40.686Z,6.70
2018-02-15T15:30:08.628Z,6.80
2018-02-15T15:32:36.266Z,6.90
2018-02-15T15:35:03.883Z,6.80
2018-02-15T15:37:32.206Z,6.90
2018-02-15T15:39:59.808Z,6.80
2018-02-15T15:42:27.452Z,6.70
2018-02-15T15:44:55.085Z,6.70
2018-02-15T15:47:22.702Z,6.60
2018-02-15T15:49:51.204Z,6.60
2018-02-15T15:52:18.817Z,6.60
2018-02-15T15:54:46.422Z,6.50
2018-02-15T15:57:14.855Z,6.50
2018-02-15T15:59:42.480Z,6.50
2018-02-15T16:02:10.108Z,6.60
2018-02-15T16:04:37.763Z,6.60
2018-02-15T16:07:05.409Z,6.60
2018-02-15T16:09:33.018Z,6.60
2018-02-15T16:12:00.669Z,6.50
2018-02-15T16:14:28.308Z,6.50
2018-02-15T16:16:55.927Z,6.50
2018-02-15T16:19:23.601Z,6.50
2018-02-15T16:21:51.231Z,6.40
2018-02-15T16:24:20.786Z,6.30
2018-02-15T16:26:48.418Z,6.20
2018-02-15T16:29:16.066Z,6.20
2018-02-15T16:31:43.723Z,6.10
2018-02-15T16:34:11.348Z,6.10
2018-02-15T16:36:39.724Z,6.10
2018-02-15T16:39:08.323Z,6.10
2018-02-15T16:41:36.735Z,6.20
2018-02-15T16:44:04.424Z,6.20
2018-02-15T16:46:32.032Z,6.20
2018-02-15T16:49:00.435Z,6.10
2018-02-15T16:51:28.087Z,6.10
2018-02-15T16:53:56.475Z,6.20
2018-02-15T16:56:24.109Z,6.20
2018-02-15T16:58:53.391Z,6.10
2018-02-15T17:01:21.016Z,6.10
2018-02-15T17:03:48.619Z,6.20
2018-02-15T17:06:17.025Z,6.20
2018-02-15T17:08:44.631Z,6.10
2018-02-15T17:11:12.273Z,6.20
2018-02-15T17:13:39.872Z,6.20
2018-02-15T17:16:07.604Z,6.20
2018-02-15T17:18:35.260Z,6.10
2018-02-15T17:21:03.878Z,6.10
2018-02-15T17:23:32.095Z,6.10
2018-02-15T17:26:00.663Z,6.20
2018-02-15T17:28:29.018Z,6.20
2018-02-15T17:30:56.635Z,6.20
2018-02-15T17:33:24.253Z,6.10
2018-02-15T17:35:52.463Z,6.00
2018-02-15T17:38:20.065Z,6.10
2018-02-15T17:40:47.701Z,6.10
2018-02-15T17:43:15.356Z,6.10
2018-02-15T17:45:43.033Z,6.10
2018-02-15T17:48:10.659Z,6.20
2018-02-15T17:50:38.304Z,6.10
2018-02-15T17:53:06.727Z,6.20
2018-02-15T17:55:34.319Z,6.10
2018-02-15T17:58:01.942Z,6.10
2018-02-15T18:00:29.538Z,6.10
2018-02-15T18:02:57.173Z,6.20
2018-02-15T18:05:24.774Z,6.20
2018-02-15T18:07:53.156Z,6.10
2018-02-15T18:10:21.607Z,6.10
2018-02-15T18:12:49.225Z,6.10
2018-02-15T18:15:16.849Z,6.20
2018-02-15T18:17:44.670Z,6.20
2018-02-15T18:20:12.314Z,6.20
2018-02-15T18:22:39.928Z,6.20
2018-02-15T18:25:07.590Z,6.20
2018-02-15T18:27:35.190Z,6.20
2018-02-15T18:30:02.798Z,6.20
2018-02-15T18:32:30.429Z,6.20
2018-02-15T18:34:58.029Z,6.20
2018-02-15T18:37:25.659Z,6.20
2018-02-15T18:39:53.264Z,6.20
2018-02-15T18:42:20.878Z,6.20
2018-02-15T18:44:48.475Z,6.10
2018-02-15T18:47:16.096Z,6.10
2018-02-15T18:49:43.732Z,6.20
2018-02-15T18:52:12.106Z,6.20
2018-02-15T18:54:40.510Z,6.20
2018-02-15T18:57:08.115Z,6.20
2018-02-15T18:59:35.772Z,6.20
2018-02-15T19:02:03.399Z,6.20
2018-02-15T19:04:31.015Z,6.30
2018-02-15T19:07:00.156Z,6.30
2018-02-15T19:09:27.812Z,6.30
2018-02-15T19:11:55.465Z,6.40
2018-02-15T19:14:23.941Z,6.30
2018-02-15T19:16:51.571Z,6.40
2018-02-15T19:19:19.179Z,6.40
2018-02-15T19:21:46.802Z,6.40
2018-02-15T19:24:15.190Z,6.40
2018-02-15T19:26:43.589Z,6.40
2018-02-15T19:29:11.220Z,6.40
2018-02-15T19:31:39.588Z,6.40
2018-02-15T19:34:07.224Z,6.40
2018-02-15T19:36:34.873Z,6.30
2018-02-15T19:39:02.488Z,6.30
2018-02-15T19:41:30.889Z,6.30
2018-02-15T19:43:58.492Z,6.30
2018-02-15T19:46:26.117Z,6.40
2018-02-15T19:48:53.721Z,6.40
2018-02-15T19:51:21.388Z,6.30
2018-02-15T19:53:48.995Z,6.30
2018-02-15T19:56:16.645Z,6.30
2018-02-15T19:58:44.261Z,6.30
2018-02-15T20:01:11.882Z,6.30
2018-02-15T20:03:39.509Z,6.30
2018-02-15T20:06:07.889Z,6.30
2018-02-15T20:08:37.217Z,6.30
2018-02-15T20:11:04.922Z,6.20
2018-02-15T20:13:32.616Z,6.20
2018-02-15T20:16:01.012Z,6.20
2018-02-15T20:18:28.652Z,6.20
2018-02-15T20:20:57.040Z,6.20
2018-02-15T20:23:25.418Z,6.20
2018-02-15T20:25:59.529Z,6.20
2018-02-15T20:28:27.930Z,6.20
2018-02-15T20:30:55.543Z,6.30
2018-02-15T20:33:23.202Z,6.30
2018-02-15T20:35:50.815Z,6.30
2018-02-15T20:38:24.189Z,6.30
2018-02-15T20:40:52.585Z,6.30
2018-02-15T20:43:20.239Z,6.30
2018-02-15T20:45:48.649Z,6.30
2018-02-15T20:48:16.302Z,6.30
2018-02-15T20:50:49.484Z,6.30
2018-02-15T20:53:22.874Z,6.30
2018-02-15T20:55:50.483Z,6.20
2018-02-15T20:58:18.127Z,6.30
2018-02-15T21:00:45.730Z,6.30
2018-02-15T21:03:13.363Z,6.30
2018-02-15T21:05:41.978Z,6.30
2018-02-15T21:08:09.615Z,6.30
2018-02-15T21:10:37.260Z,6.30
2018-02-15T21:13:04.867Z,6.20
2018-02-15T21:15:33.280Z,6.20
2018-02-15T21:18:00.883Z,6.20
2018-02-15T21:20:28.524Z,6.30
2018-02-15T21:22:56.157Z,6.20
2018-02-15T21:25:23.763Z,6.30
2018-02-15T21:27:51.415Z,6.20
2018-02-15T21:30:19.795Z,6.10
2018-02-15T21:32:47.442Z,6.20
2018-02-15T21:35:15.866Z,6.20
2018-02-15T21:37:44.280Z,6.20
2018-02-15T21:40:11.879Z,6.20
2018-02-15T21:42:39.488Z,6.30
2018-02-15T21:45:07.114Z,6.20
2018-02-15T21:47:34.772Z,6.30
2018-02-15T21:50:02.372Z,6.30
2018-02-15T21:52:29.993Z,6.30
2018-02-15T21:54:57.648Z,6.30
2018-02-15T21:57:25.243Z,6.30
2018-02-15T21:59:53.663Z,6.30
2018-02-15T22:02:21.277Z,6.30
2018-02-15T22:04:49.659Z,6.40
2018-02-15T22:07:18.017Z,6.40
2018-02-15T22:09:45.660Z,6.40
2018-02-15T22:12:13.283Z,6.40
2018-02-15T22:14:40.894Z,6.30
2018-02-15T22:17:08.532Z,6.40
2018-02-15T22:19:36.100Z,6.40
2018-02-15T22:22:03.686Z,6.50
2018-02-15T22:24:31.283Z,6.50
2018-02-15T22:26:58.882Z,6.60
2018-02-15T22:29:26.454Z,6.50
2018-02-15T22:31:54.022Z,6.40
2018-02-15T22:34:21.614Z,6.30
2018-02-15T22:36:49.182Z,6.40
2018-02-15T22:39:16.823Z,6.50
2018-02-15T22:41:45.154Z,6.50
2018-02-15T22:44:12.744Z,6.50
2018-02-15T22:46:40.330Z,6.50
2018-02-15T22:49:08.698Z,6.50
2018-02-15T22:51:37.030Z,6.60
2018-02-15T22:54:04.610Z,6.50
2018-02-15T22:56:32.999Z,6.60
2018-02-15T22:59:00.586Z,6.50
2018-02-15T23:01:28.916Z,6.30
2018-02-15T23:03:56.538Z,6.30
2018-02-15T23:06:24.122Z,6.40
2018-02-15T23:08:51.677Z,6.40
2018-02-15T23:11:19.273Z,6.40
2018-02-15T23:13:46.882Z,6.50
2018-02-15T23:16:14.483Z,6.50
2018-02-15T23:18:42.076Z,6.50
2018-02-15T23:21:10.425Z,6.60
2018-02-15T23:23:38.036Z,6.60
2018-02-15T23:26:05.647Z,6.60
2018-02-15T23:28:33.235Z,6.60
2018-02-15T23:31:01.590Z,6.60
2018-02-15T23:33:30.200Z,6.60
2018-02-15T23:35:58.556Z,6.60
2018-02-15T23:38:26.127Z,6.60
2018-02-15T23:40:54.511Z,6.70
2018-02-15T23:43:22.891Z,6.70
2018-02-15T23:45:51.227Z,6.70
2018-02-15T23:48:18.847Z,6.70
2018-02-15T23:50:46.488Z,6.60
2018-02-15T23:53:14.836Z,6.40
2018-02-15T23:55:42.406Z,6.40
2018-02-15T23:58:10.018Z,6.40
